sensor_id;sensor_type;location;lat;lon;timestamp;P1;durP1;ratioP1;P2;durP2;ratioP2
42282;SDS011;28237;47.954;21.730;2023-11-19T00:01:34;4.55;;;3.42;;
42282;SDS011;28237;47.954;21.730;2023-11-19T00:03:59;4.95;;;3.97;;
42282;SDS011;28237;47.954;21.730;2023-11-19T00:06:24;6.65;;;4.00;;
42282;SDS011;28237;47.954;21.730;2023-11-19T00:08:50;6.82;;;4.55;;
42282;SDS011;28237;47.954;21.730;2023-11-19T00:11:16;5.03;;;4.03;;
42282;SDS011;28237;47.954;21.730;2023-11-19T00:13:41;5.60;;;3.60;;
42282;SDS011;28237;47.954;21.730;2023-11-19T00:16:07;5.03;;;3.60;;
42282;SDS011;28237;47.954;21.730;2023-11-19T00:18:33;4.40;;;3.53;;
42282;SDS011;28237;47.954;21.730;2023-11-19T00:20:58;5.72;;;3.90;;
42282;SDS011;28237;47.954;21.730;2023-11-19T00:23:23;5.55;;;3.70;;
42282;SDS011;28237;47.954;21.730;2023-11-19T00:25:48;5.28;;;4.00;;
42282;SDS011;28237;47.954;21.730;2023-11-19T00:28:14;5.40;;;3.72;;
42282;SDS011;28237;47.954;21.730;2023-11-19T00:30:39;4.18;;;3.28;;
42282;SDS011;28237;47.954;21.730;2023-11-19T00:33:06;5.60;;;3.92;;
42282;SDS011;28237;47.954;21.730;2023-11-19T00:35:31;7.00;;;4.32;;
42282;SDS011;28237;47.954;21.730;2023-11-19T00:37:57;6.38;;;3.83;;
42282;SDS011;28237;47.954;21.730;2023-11-19T00:40:23;5.13;;;3.08;;
42282;SDS011;28237;47.954;21.730;2023-11-19T00:42:49;5.32;;;3.85;;
42282;SDS011;28237;47.954;21.730;2023-11-19T00:45:14;4.50;;;3.33;;
42282;SDS011;28237;47.954;21.730;2023-11-19T00:47:40;3.88;;;3.10;;
42282;SDS011;28237;47.954;21.730;2023-11-19T00:50:05;5.25;;;3.72;;
42282;SDS011;28237;47.954;21.730;2023-11-19T00:52:31;5.25;;;3.60;;
42282;SDS011;28237;47.954;21.730;2023-11-19T00:54:56;4.07;;;3.47;;
42282;SDS011;28237;47.954;21.730;2023-11-19T00:57:22;6.32;;;3.83;;
42282;SDS011;28237;47.954;21.730;2023-11-19T00:59:47;7.22;;;4.32;;
42282;SDS011;28237;47.954;21.730;2023-11-19T01:02:12;5.47;;;3.67;;
42282;SDS011;28237;47.954;21.730;2023-11-19T01:04:39;5.57;;;4.18;;
42282;SDS011;28237;47.954;21.730;2023-11-19T01:07:04;5.85;;;3.83;;
42282;SDS011;28237;47.954;21.730;2023-11-19T01:09:30;5.72;;;4.43;;
42282;SDS011;28237;47.954;21.730;2023-11-19T01:11:57;5.85;;;3.53;;
42282;SDS011;28237;47.954;21.730;2023-11-19T01:14:23;5.20;;;3.70;;
42282;SDS011;28237;47.954;21.730;2023-11-19T01:16:48;3.75;;;2.88;;
42282;SDS011;28237;47.954;21.730;2023-11-19T01:19:13;4.38;;;2.90;;
42282;SDS011;28237;47.954;21.730;2023-11-19T01:21:39;7.50;;;3.72;;
42282;SDS011;28237;47.954;21.730;2023-11-19T01:24:04;6.05;;;3.80;;
42282;SDS011;28237;47.954;21.730;2023-11-19T01:26:34;5.78;;;4.55;;
42282;SDS011;28237;47.954;21.730;2023-11-19T01:28:59;6.43;;;4.03;;
42282;SDS011;28237;47.954;21.730;2023-11-19T01:31:25;6.15;;;4.22;;
42282;SDS011;28237;47.954;21.730;2023-11-19T01:33:50;5.40;;;3.90;;
42282;SDS011;28237;47.954;21.730;2023-11-19T01:36:15;5.63;;;3.50;;
42282;SDS011;28237;47.954;21.730;2023-11-19T01:38:41;5.70;;;3.88;;
42282;SDS011;28237;47.954;21.730;2023-11-19T01:41:06;4.60;;;3.38;;
42282;SDS011;28237;47.954;21.730;2023-11-19T01:43:38;6.70;;;3.83;;
42282;SDS011;28237;47.954;21.730;2023-11-19T01:46:06;5.50;;;3.72;;
42282;SDS011;28237;47.954;21.730;2023-11-19T01:48:34;6.60;;;4.38;;
42282;SDS011;28237;47.954;21.730;2023-11-19T01:51:04;5.35;;;3.63;;
42282;SDS011;28237;47.954;21.730;2023-11-19T01:53:30;6.97;;;4.10;;
42282;SDS011;28237;47.954;21.730;2023-11-19T01:55:56;9.15;;;4.32;;
42282;SDS011;28237;47.954;21.730;2023-11-19T01:58:21;6.28;;;3.90;;
42282;SDS011;28237;47.954;21.730;2023-11-19T02:00:48;6.30;;;4.03;;
42282;SDS011;28237;47.954;21.730;2023-11-19T02:03:13;7.70;;;4.30;;
42282;SDS011;28237;47.954;21.730;2023-11-19T02:05:39;6.40;;;4.57;;
42282;SDS011;28237;47.954;21.730;2023-11-19T02:08:04;6.53;;;4.20;;
42282;SDS011;28237;47.954;21.730;2023-11-19T02:10:30;5.38;;;4.00;;
42282;SDS011;28237;47.954;21.730;2023-11-19T02:12:57;6.05;;;3.33;;
42282;SDS011;28237;47.954;21.730;2023-11-19T02:15:22;5.25;;;3.67;;
42282;SDS011;28237;47.954;21.730;2023-11-19T02:17:49;5.80;;;4.50;;
42282;SDS011;28237;47.954;21.730;2023-11-19T02:20:14;4.65;;;3.72;;
42282;SDS011;28237;47.954;21.730;2023-11-19T02:22:40;5.00;;;3.72;;
42282;SDS011;28237;47.954;21.730;2023-11-19T02:25:11;6.30;;;4.45;;
42282;SDS011;28237;47.954;21.730;2023-11-19T02:30:03;6.80;;;4.38;;
42282;SDS011;28237;47.954;21.730;2023-11-19T02:32:31;5.90;;;3.83;;
42282;SDS011;28237;47.954;21.730;2023-11-19T02:34:56;5.22;;;4.13;;
42282;SDS011;28237;47.954;21.730;2023-11-19T02:37:21;5.30;;;3.88;;
42282;SDS011;28237;47.954;21.730;2023-11-19T02:39:47;4.28;;;3.35;;
42282;SDS011;28237;47.954;21.730;2023-11-19T02:42:12;7.45;;;4.68;;
42282;SDS011;28237;47.954;21.730;2023-11-19T02:44:39;5.95;;;4.32;;
42282;SDS011;28237;47.954;21.730;2023-11-19T02:47:08;4.80;;;3.17;;
42282;SDS011;28237;47.954;21.730;2023-11-19T02:49:34;4.75;;;3.30;;
42282;SDS011;28237;47.954;21.730;2023-11-19T02:51:59;4.30;;;3.85;;
42282;SDS011;28237;47.954;21.730;2023-11-19T02:54:24;3.80;;;3.40;;
42282;SDS011;28237;47.954;21.730;2023-11-19T02:56:52;4.13;;;3.13;;
42282;SDS011;28237;47.954;21.730;2023-11-19T02:59:20;6.75;;;4.13;;
42282;SDS011;28237;47.954;21.730;2023-11-19T03:01:52;5.90;;;3.67;;
42282;SDS011;28237;47.954;21.730;2023-11-19T03:04:18;5.78;;;4.50;;
42282;SDS011;28237;47.954;21.730;2023-11-19T03:06:45;4.35;;;3.58;;
42282;SDS011;28237;47.954;21.730;2023-11-19T03:09:11;4.85;;;4.10;;
42282;SDS011;28237;47.954;21.730;2023-11-19T03:11:36;5.22;;;3.58;;
42282;SDS011;28237;47.954;21.730;2023-11-19T03:14:02;6.45;;;4.05;;
42282;SDS011;28237;47.954;21.730;2023-11-19T03:16:28;5.53;;;3.63;;
42282;SDS011;28237;47.954;21.730;2023-11-19T03:18:53;3.97;;;3.30;;
42282;SDS011;28237;47.954;21.730;2023-11-19T03:21:19;5.30;;;3.63;;
42282;SDS011;28237;47.954;21.730;2023-11-19T03:23:44;3.43;;;3.10;;
42282;SDS011;28237;47.954;21.730;2023-11-19T03:26:10;6.37;;;4.53;;
42282;SDS011;28237;47.954;21.730;2023-11-19T03:28:35;4.55;;;4.03;;
42282;SDS011;28237;47.954;21.730;2023-11-19T03:31:01;4.47;;;3.45;;
42282;SDS011;28237;47.954;21.730;2023-11-19T03:33:26;4.50;;;3.88;;
42282;SDS011;28237;47.954;21.730;2023-11-19T03:35:53;10.18;;;6.57;;
42282;SDS011;28237;47.954;21.730;2023-11-19T03:38:18;8.23;;;4.75;;
42282;SDS011;28237;47.954;21.730;2023-11-19T03:40:43;4.87;;;3.07;;
42282;SDS011;28237;47.954;21.730;2023-11-19T03:43:08;4.82;;;3.75;;
42282;SDS011;28237;47.954;21.730;2023-11-19T03:45:34;6.60;;;4.00;;
42282;SDS011;28237;47.954;21.730;2023-11-19T03:48:01;7.80;;;4.60;;
42282;SDS011;28237;47.954;21.730;2023-11-19T03:50:26;4.55;;;3.67;;
42282;SDS011;28237;47.954;21.730;2023-11-19T03:52:51;4.93;;;3.70;;
42282;SDS011;28237;47.954;21.730;2023-11-19T03:55:17;4.68;;;4.03;;
42282;SDS011;28237;47.954;21.730;2023-11-19T03:57:42;6.18;;;3.70;;
42282;SDS011;28237;47.954;21.730;2023-11-19T04:00:08;5.72;;;4.18;;
42282;SDS011;28237;47.954;21.730;2023-11-19T04:02:36;4.93;;;3.63;;
42282;SDS011;28237;47.954;21.730;2023-11-19T04:05:01;4.53;;;3.13;;
42282;SDS011;28237;47.954;21.730;2023-11-19T04:07:26;7.18;;;4.35;;
42282;SDS011;28237;47.954;21.730;2023-11-19T04:09:51;6.10;;;3.70;;
42282;SDS011;28237;47.954;21.730;2023-11-19T04:12:17;5.57;;;3.88;;
42282;SDS011;28237;47.954;21.730;2023-11-19T04:14:42;5.43;;;3.55;;
42282;SDS011;28237;47.954;21.730;2023-11-19T04:17:07;3.88;;;3.00;;
42282;SDS011;28237;47.954;21.730;2023-11-19T04:19:33;6.85;;;4.45;;
42282;SDS011;28237;47.954;21.730;2023-11-19T04:21:58;8.50;;;5.07;;
42282;SDS011;28237;47.954;21.730;2023-11-19T04:24:23;6.70;;;4.38;;
42282;SDS011;28237;47.954;21.730;2023-11-19T04:26:49;7.55;;;4.32;;
42282;SDS011;28237;47.954;21.730;2023-11-19T04:29:15;6.35;;;3.60;;
42282;SDS011;28237;47.954;21.730;2023-11-19T04:31:42;6.20;;;3.92;;
42282;SDS011;28237;47.954;21.730;2023-11-19T04:34:07;5.60;;;4.18;;
42282;SDS011;28237;47.954;21.730;2023-11-19T04:36:33;5.68;;;3.83;;
42282;SDS011;28237;47.954;21.730;2023-11-19T04:38:58;5.35;;;4.07;;
42282;SDS011;28237;47.954;21.730;2023-11-19T04:41:24;4.97;;;3.92;;
42282;SDS011;28237;47.954;21.730;2023-11-19T04:43:50;4.60;;;3.85;;
42282;SDS011;28237;47.954;21.730;2023-11-19T04:46:15;6.00;;;4.38;;
42282;SDS011;28237;47.954;21.730;2023-11-19T04:48:40;4.05;;;3.22;;
42282;SDS011;28237;47.954;21.730;2023-11-19T04:51:06;5.82;;;4.00;;
42282;SDS011;28237;47.954;21.730;2023-11-19T04:53:32;5.63;;;4.82;;
42282;SDS011;28237;47.954;21.730;2023-11-19T04:55:57;5.80;;;4.32;;
42282;SDS011;28237;47.954;21.730;2023-11-19T04:58:24;5.20;;;3.97;;
42282;SDS011;28237;47.954;21.730;2023-11-19T05:00:49;5.68;;;4.28;;
42282;SDS011;28237;47.954;21.730;2023-11-19T05:03:14;6.30;;;4.10;;
42282;SDS011;28237;47.954;21.730;2023-11-19T05:05:40;5.43;;;3.92;;
42282;SDS011;28237;47.954;21.730;2023-11-19T05:08:05;9.47;;;4.77;;
42282;SDS011;28237;47.954;21.730;2023-11-19T05:10:30;4.97;;;4.03;;
42282;SDS011;28237;47.954;21.730;2023-11-19T05:12:55;7.20;;;3.78;;
42282;SDS011;28237;47.954;21.730;2023-11-19T05:15:21;5.32;;;3.63;;
42282;SDS011;28237;47.954;21.730;2023-11-19T05:17:46;8.40;;;5.05;;
42282;SDS011;28237;47.954;21.730;2023-11-19T05:20:12;7.32;;;4.47;;
42282;SDS011;28237;47.954;21.730;2023-11-19T05:22:41;6.07;;;4.85;;
42282;SDS011;28237;47.954;21.730;2023-11-19T05:25:06;6.28;;;4.78;;
42282;SDS011;28237;47.954;21.730;2023-11-19T05:27:32;4.85;;;3.92;;
42282;SDS011;28237;47.954;21.730;2023-11-19T05:29:57;9.88;;;4.72;;
42282;SDS011;28237;47.954;21.730;2023-11-19T05:32:22;7.30;;;3.70;;
42282;SDS011;28237;47.954;21.730;2023-11-19T05:34:48;6.38;;;4.47;;
42282;SDS011;28237;47.954;21.730;2023-11-19T05:37:13;7.03;;;4.03;;
42282;SDS011;28237;47.954;21.730;2023-11-19T05:39:38;5.97;;;4.00;;
42282;SDS011;28237;47.954;21.730;2023-11-19T05:42:04;9.07;;;4.22;;
42282;SDS011;28237;47.954;21.730;2023-11-19T05:44:30;4.80;;;4.00;;
42282;SDS011;28237;47.954;21.730;2023-11-19T05:46:55;8.25;;;5.38;;
42282;SDS011;28237;47.954;21.730;2023-11-19T05:49:20;6.23;;;4.07;;
42282;SDS011;28237;47.954;21.730;2023-11-19T05:51:45;8.32;;;5.03;;
42282;SDS011;28237;47.954;21.730;2023-11-19T05:54:11;7.35;;;4.85;;
42282;SDS011;28237;47.954;21.730;2023-11-19T05:56:36;9.32;;;4.68;;
42282;SDS011;28237;47.954;21.730;2023-11-19T05:59:02;8.40;;;4.90;;
42282;SDS011;28237;47.954;21.730;2023-11-19T06:01:32;6.00;;;4.68;;
42282;SDS011;28237;47.954;21.730;2023-11-19T06:03:57;5.00;;;4.20;;
42282;SDS011;28237;47.954;21.730;2023-11-19T06:06:22;5.38;;;3.95;;
42282;SDS011;28237;47.954;21.730;2023-11-19T06:08:48;7.13;;;4.38;;
42282;SDS011;28237;47.954;21.730;2023-11-19T06:11:13;6.53;;;4.25;;
42282;SDS011;28237;47.954;21.730;2023-11-19T06:13:43;6.57;;;4.63;;
42282;SDS011;28237;47.954;21.730;2023-11-19T06:16:08;7.97;;;4.70;;
42282;SDS011;28237;47.954;21.730;2023-11-19T06:18:33;8.00;;;4.25;;
42282;SDS011;28237;47.954;21.730;2023-11-19T06:20:59;7.78;;;5.00;;
42282;SDS011;28237;47.954;21.730;2023-11-19T06:23:24;9.45;;;5.53;;
42282;SDS011;28237;47.954;21.730;2023-11-19T06:25:49;8.85;;;6.07;;
42282;SDS011;28237;47.954;21.730;2023-11-19T06:28:15;6.55;;;4.63;;
42282;SDS011;28237;47.954;21.730;2023-11-19T06:30:40;10.98;;;5.60;;
42282;SDS011;28237;47.954;21.730;2023-11-19T06:33:06;13.23;;;7.55;;
42282;SDS011;28237;47.954;21.730;2023-11-19T06:35:32;10.82;;;7.63;;
42282;SDS011;28237;47.954;21.730;2023-11-19T06:38:01;12.07;;;7.43;;
42282;SDS011;28237;47.954;21.730;2023-11-19T06:40:27;8.50;;;6.28;;
42282;SDS011;28237;47.954;21.730;2023-11-19T06:42:52;7.55;;;5.35;;
42282;SDS011;28237;47.954;21.730;2023-11-19T06:45:17;10.90;;;6.38;;
42282;SDS011;28237;47.954;21.730;2023-11-19T06:47:43;9.82;;;6.18;;
42282;SDS011;28237;47.954;21.730;2023-11-19T06:50:08;6.88;;;4.88;;
42282;SDS011;28237;47.954;21.730;2023-11-19T06:52:34;11.73;;;6.63;;
42282;SDS011;28237;47.954;21.730;2023-11-19T06:54:59;10.10;;;5.68;;
42282;SDS011;28237;47.954;21.730;2023-11-19T06:57:25;9.05;;;5.40;;
42282;SDS011;28237;47.954;21.730;2023-11-19T06:59:50;6.53;;;5.07;;
42282;SDS011;28237;47.954;21.730;2023-11-19T07:02:16;10.38;;;6.50;;
42282;SDS011;28237;47.954;21.730;2023-11-19T07:04:41;6.13;;;5.22;;
42282;SDS011;28237;47.954;21.730;2023-11-19T07:07:06;7.68;;;5.32;;
42282;SDS011;28237;47.954;21.730;2023-11-19T07:09:31;9.25;;;6.32;;
42282;SDS011;28237;47.954;21.730;2023-11-19T07:11:57;9.43;;;6.15;;
42282;SDS011;28237;47.954;21.730;2023-11-19T07:14:24;15.48;;;6.88;;
42282;SDS011;28237;47.954;21.730;2023-11-19T07:16:50;9.68;;;6.22;;
42282;SDS011;28237;47.954;21.730;2023-11-19T07:19:15;6.45;;;5.20;;
42282;SDS011;28237;47.954;21.730;2023-11-19T07:21:41;9.20;;;5.95;;
42282;SDS011;28237;47.954;21.730;2023-11-19T07:24:09;12.07;;;6.90;;
42282;SDS011;28237;47.954;21.730;2023-11-19T07:26:34;8.00;;;5.45;;
42282;SDS011;28237;47.954;21.730;2023-11-19T07:29:00;8.73;;;5.57;;
42282;SDS011;28237;47.954;21.730;2023-11-19T07:31:26;10.73;;;6.45;;
42282;SDS011;28237;47.954;21.730;2023-11-19T07:33:52;10.80;;;7.20;;
42282;SDS011;28237;47.954;21.730;2023-11-19T07:36:18;11.52;;;7.78;;
42282;SDS011;28237;47.954;21.730;2023-11-19T07:38:45;12.27;;;7.07;;
42282;SDS011;28237;47.954;21.730;2023-11-19T07:41:10;9.82;;;6.63;;
42282;SDS011;28237;47.954;21.730;2023-11-19T07:43:38;7.70;;;5.53;;
42282;SDS011;28237;47.954;21.730;2023-11-19T07:46:03;9.77;;;6.60;;
42282;SDS011;28237;47.954;21.730;2023-11-19T07:48:29;11.55;;;5.90;;
42282;SDS011;28237;47.954;21.730;2023-11-19T07:50:54;10.70;;;7.38;;
42282;SDS011;28237;47.954;21.730;2023-11-19T07:53:20;7.47;;;6.07;;
42282;SDS011;28237;47.954;21.730;2023-11-19T07:55:45;7.45;;;5.63;;
42282;SDS011;28237;47.954;21.730;2023-11-19T07:58:11;6.88;;;4.57;;
42282;SDS011;28237;47.954;21.730;2023-11-19T08:00:36;5.68;;;3.75;;
42282;SDS011;28237;47.954;21.730;2023-11-19T08:03:02;6.63;;;4.32;;
42282;SDS011;28237;47.954;21.730;2023-11-19T08:05:27;6.90;;;5.22;;
42282;SDS011;28237;47.954;21.730;2023-11-19T08:07:53;7.35;;;4.57;;
42282;SDS011;28237;47.954;21.730;2023-11-19T08:10:21;6.88;;;5.22;;
42282;SDS011;28237;47.954;21.730;2023-11-19T08:12:46;6.38;;;4.65;;
42282;SDS011;28237;47.954;21.730;2023-11-19T08:15:11;8.25;;;4.40;;
42282;SDS011;28237;47.954;21.730;2023-11-19T08:17:37;7.80;;;5.35;;
42282;SDS011;28237;47.954;21.730;2023-11-19T08:20:03;9.90;;;5.05;;
42282;SDS011;28237;47.954;21.730;2023-11-19T08:22:29;7.43;;;5.55;;
42282;SDS011;28237;47.954;21.730;2023-11-19T08:24:55;10.73;;;5.63;;
42282;SDS011;28237;47.954;21.730;2023-11-19T08:27:20;8.73;;;5.28;;
42282;SDS011;28237;47.954;21.730;2023-11-19T08:29:52;9.30;;;5.53;;
42282;SDS011;28237;47.954;21.730;2023-11-19T08:32:17;9.52;;;5.65;;
42282;SDS011;28237;47.954;21.730;2023-11-19T08:34:42;10.73;;;5.35;;
42282;SDS011;28237;47.954;21.730;2023-11-19T08:37:08;12.80;;;6.30;;
42282;SDS011;28237;47.954;21.730;2023-11-19T08:39:33;20.77;;;7.57;;
42282;SDS011;28237;47.954;21.730;2023-11-19T08:42:00;9.45;;;6.18;;
42282;SDS011;28237;47.954;21.730;2023-11-19T08:44:25;8.20;;;5.55;;
42282;SDS011;28237;47.954;21.730;2023-11-19T08:46:50;7.95;;;5.45;;
42282;SDS011;28237;47.954;21.730;2023-11-19T08:49:16;6.85;;;5.03;;
42282;SDS011;28237;47.954;21.730;2023-11-19T08:51:41;7.00;;;5.47;;
42282;SDS011;28237;47.954;21.730;2023-11-19T08:54:06;11.35;;;7.18;;
42282;SDS011;28237;47.954;21.730;2023-11-19T08:56:32;9.90;;;6.90;;
42282;SDS011;28237;47.954;21.730;2023-11-19T08:58:58;12.57;;;6.80;;
42282;SDS011;28237;47.954;21.730;2023-11-19T09:01:23;8.55;;;5.43;;
42282;SDS011;28237;47.954;21.730;2023-11-19T09:03:49;8.43;;;5.13;;
42282;SDS011;28237;47.954;21.730;2023-11-19T09:06:15;163.60;;;57.05;;
42282;SDS011;28237;47.954;21.730;2023-11-19T09:08:41;340.73;;;112.13;;
42282;SDS011;28237;47.954;21.730;2023-11-19T09:11:07;105.88;;;45.95;;
42282;SDS011;28237;47.954;21.730;2023-11-19T09:13:33;27.98;;;14.27;;
42282;SDS011;28237;47.954;21.730;2023-11-19T09:15:59;12.00;;;6.85;;
42282;SDS011;28237;47.954;21.730;2023-11-19T09:18:28;10.57;;;8.00;;
42282;SDS011;28237;47.954;21.730;2023-11-19T09:20:53;11.60;;;6.97;;
42282;SDS011;28237;47.954;21.730;2023-11-19T09:23:19;10.05;;;7.10;;
42282;SDS011;28237;47.954;21.730;2023-11-19T09:25:44;12.13;;;8.13;;
42282;SDS011;28237;47.954;21.730;2023-11-19T09:28:10;12.23;;;6.40;;
42282;SDS011;28237;47.954;21.730;2023-11-19T09:30:35;16.27;;;8.68;;
42282;SDS011;28237;47.954;21.730;2023-11-19T09:33:01;16.83;;;8.43;;
42282;SDS011;28237;47.954;21.730;2023-11-19T09:35:27;10.93;;;5.97;;
42282;SDS011;28237;47.954;21.730;2023-11-19T09:37:52;7.85;;;6.25;;
42282;SDS011;28237;47.954;21.730;2023-11-19T09:40:18;10.18;;;5.80;;
42282;SDS011;28237;47.954;21.730;2023-11-19T09:42:43;8.10;;;5.43;;
42282;SDS011;28237;47.954;21.730;2023-11-19T09:45:12;10.02;;;5.38;;
42282;SDS011;28237;47.954;21.730;2023-11-19T09:47:38;6.90;;;5.00;;
42282;SDS011;28237;47.954;21.730;2023-11-19T09:50:04;8.40;;;4.72;;
42282;SDS011;28237;47.954;21.730;2023-11-19T09:52:30;8.85;;;5.35;;
42282;SDS011;28237;47.954;21.730;2023-11-19T09:54:55;5.40;;;4.25;;
42282;SDS011;28237;47.954;21.730;2023-11-19T09:57:20;10.18;;;5.00;;
42282;SDS011;28237;47.954;21.730;2023-11-19T09:59:46;6.65;;;4.25;;
42282;SDS011;28237;47.954;21.730;2023-11-19T10:02:12;6.20;;;4.63;;
42282;SDS011;28237;47.954;21.730;2023-11-19T10:04:38;6.78;;;4.57;;
42282;SDS011;28237;47.954;21.730;2023-11-19T10:07:04;8.95;;;4.97;;
42282;SDS011;28237;47.954;21.730;2023-11-19T10:09:29;8.02;;;5.05;;
42282;SDS011;28237;47.954;21.730;2023-11-19T10:11:54;7.18;;;4.38;;
42282;SDS011;28237;47.954;21.730;2023-11-19T10:14:20;5.15;;;4.40;;
42282;SDS011;28237;47.954;21.730;2023-11-19T10:16:47;6.55;;;5.15;;
42282;SDS011;28237;47.954;21.730;2023-11-19T10:19:18;7.20;;;5.03;;
42282;SDS011;28237;47.954;21.730;2023-11-19T10:21:44;7.85;;;4.43;;
42282;SDS011;28237;47.954;21.730;2023-11-19T10:24:11;5.90;;;4.43;;
42282;SDS011;28237;47.954;21.730;2023-11-19T10:26:36;6.75;;;4.63;;
42282;SDS011;28237;47.954;21.730;2023-11-19T10:29:02;4.28;;;3.47;;
42282;SDS011;28237;47.954;21.730;2023-11-19T10:31:27;5.60;;;4.50;;
42282;SDS011;28237;47.954;21.730;2023-11-19T10:33:53;6.68;;;4.10;;
42282;SDS011;28237;47.954;21.730;2023-11-19T10:36:18;5.55;;;3.70;;
42282;SDS011;28237;47.954;21.730;2023-11-19T10:38:54;5.63;;;4.25;;
42282;SDS011;28237;47.954;21.730;2023-11-19T10:41:31;7.43;;;4.20;;
42282;SDS011;28237;47.954;21.730;2023-11-19T10:43:57;6.03;;;4.75;;
42282;SDS011;28237;47.954;21.730;2023-11-19T10:46:23;5.88;;;3.97;;
42282;SDS011;28237;47.954;21.730;2023-11-19T10:49:00;6.60;;;4.07;;
42282;SDS011;28237;47.954;21.730;2023-11-19T10:51:26;5.10;;;3.57;;
42282;SDS011;28237;47.954;21.730;2023-11-19T10:53:51;5.93;;;4.25;;
42282;SDS011;28237;47.954;21.730;2023-11-19T10:56:19;6.28;;;3.80;;
42282;SDS011;28237;47.954;21.730;2023-11-19T10:58:45;5.47;;;3.90;;
42282;SDS011;28237;47.954;21.730;2023-11-19T11:01:15;5.15;;;3.65;;
42282;SDS011;28237;47.954;21.730;2023-11-19T11:03:41;5.60;;;4.00;;
42282;SDS011;28237;47.954;21.730;2023-11-19T11:06:08;4.18;;;3.03;;
42282;SDS011;28237;47.954;21.730;2023-11-19T11:08:34;5.22;;;3.65;;
42282;SDS011;28237;47.954;21.730;2023-11-19T11:11:01;5.22;;;3.67;;
42282;SDS011;28237;47.954;21.730;2023-11-19T11:13:27;6.82;;;4.30;;
42282;SDS011;28237;47.954;21.730;2023-11-19T11:15:56;6.97;;;4.30;;
42282;SDS011;28237;47.954;21.730;2023-11-19T11:18:23;5.40;;;3.53;;
42282;SDS011;28237;47.954;21.730;2023-11-19T11:20:49;5.82;;;4.38;;
42282;SDS011;28237;47.954;21.730;2023-11-19T11:23:30;4.32;;;3.80;;
42282;SDS011;28237;47.954;21.730;2023-11-19T11:36:24;6.60;;;3.60;;
42282;SDS011;28237;47.954;21.730;2023-11-19T11:38:49;6.40;;;3.78;;
42282;SDS011;28237;47.954;21.730;2023-11-19T11:43:43;6.30;;;4.00;;
42282;SDS011;28237;47.954;21.730;2023-11-19T11:46:09;5.10;;;3.78;;
42282;SDS011;28237;47.954;21.730;2023-11-19T11:48:34;4.97;;;3.50;;
42282;SDS011;28237;47.954;21.730;2023-11-19T11:50:59;6.25;;;4.28;;
42282;SDS011;28237;47.954;21.730;2023-11-19T11:53:25;8.52;;;5.15;;
42282;SDS011;28237;47.954;21.730;2023-11-19T11:58:19;8.60;;;4.25;;
42282;SDS011;28237;47.954;21.730;2023-11-19T12:00:45;6.85;;;4.70;;
42282;SDS011;28237;47.954;21.730;2023-11-19T12:03:12;9.32;;;5.28;;
42282;SDS011;28237;47.954;21.730;2023-11-19T12:05:41;7.68;;;4.88;;
42282;SDS011;28237;47.954;21.730;2023-11-19T12:08:07;6.88;;;4.50;;
42282;SDS011;28237;47.954;21.730;2023-11-19T12:10:45;11.13;;;6.18;;
42282;SDS011;28237;47.954;21.730;2023-11-19T12:13:12;8.52;;;5.53;;
42282;SDS011;28237;47.954;21.730;2023-11-19T12:18:30;5.63;;;4.47;;
42282;SDS011;28237;47.954;21.730;2023-11-19T12:20:56;8.35;;;5.68;;
42282;SDS011;28237;47.954;21.730;2023-11-19T12:23:22;6.75;;;4.72;;
42282;SDS011;28237;47.954;21.730;2023-11-19T12:25:48;8.57;;;5.18;;
42282;SDS011;28237;47.954;21.730;2023-11-19T12:28:14;6.38;;;4.40;;
42282;SDS011;28237;47.954;21.730;2023-11-19T12:30:42;5.72;;;4.35;;
42282;SDS011;28237;47.954;21.730;2023-11-19T12:33:08;6.78;;;4.25;;
42282;SDS011;28237;47.954;21.730;2023-11-19T12:35:36;6.60;;;4.40;;
42282;SDS011;28237;47.954;21.730;2023-11-19T12:38:03;6.25;;;4.28;;
42282;SDS011;28237;47.954;21.730;2023-11-19T12:40:28;5.57;;;4.35;;
42282;SDS011;28237;47.954;21.730;2023-11-19T12:42:54;6.70;;;4.55;;
42282;SDS011;28237;47.954;21.730;2023-11-19T12:45:20;5.85;;;4.32;;
42282;SDS011;28237;47.954;21.730;2023-11-19T12:47:46;6.35;;;4.00;;
42282;SDS011;28237;47.954;21.730;2023-11-19T12:50:17;7.05;;;4.75;;
42282;SDS011;28237;47.954;21.730;2023-11-19T12:52:54;6.63;;;4.95;;
42282;SDS011;28237;47.954;21.730;2023-11-19T12:55:26;5.90;;;4.15;;
42282;SDS011;28237;47.954;21.730;2023-11-19T12:57:52;8.02;;;5.28;;
42282;SDS011;28237;47.954;21.730;2023-11-19T13:00:18;7.10;;;5.18;;
42282;SDS011;28237;47.954;21.730;2023-11-19T13:02:47;9.15;;;5.65;;
42282;SDS011;28237;47.954;21.730;2023-11-19T13:05:20;7.28;;;5.15;;
42282;SDS011;28237;47.954;21.730;2023-11-19T13:07:46;9.38;;;5.10;;
42282;SDS011;28237;47.954;21.730;2023-11-19T13:10:11;8.30;;;5.43;;
42282;SDS011;28237;47.954;21.730;2023-11-19T13:12:36;9.23;;;6.70;;
42282;SDS011;28237;47.954;21.730;2023-11-19T13:15:02;8.87;;;5.17;;
42282;SDS011;28237;47.954;21.730;2023-11-19T13:17:27;6.65;;;4.43;;
42282;SDS011;28237;47.954;21.730;2023-11-19T13:19:53;8.40;;;5.25;;
42282;SDS011;28237;47.954;21.730;2023-11-19T13:22:18;11.25;;;6.07;;
42282;SDS011;28237;47.954;21.730;2023-11-19T13:24:43;7.65;;;5.03;;
42282;SDS011;28237;47.954;21.730;2023-11-19T13:27:08;8.87;;;6.03;;
42282;SDS011;28237;47.954;21.730;2023-11-19T13:29:34;8.63;;;5.33;;
42282;SDS011;28237;47.954;21.730;2023-11-19T13:32:00;7.32;;;4.65;;
42282;SDS011;28237;47.954;21.730;2023-11-19T13:34:25;7.63;;;5.27;;
42282;SDS011;28237;47.954;21.730;2023-11-19T13:36:50;7.43;;;5.07;;
42282;SDS011;28237;47.954;21.730;2023-11-19T13:39:16;11.57;;;6.88;;
42282;SDS011;28237;47.954;21.730;2023-11-19T13:41:47;11.90;;;5.75;;
42282;SDS011;28237;47.954;21.730;2023-11-19T13:44:12;8.02;;;5.30;;
42282;SDS011;28237;47.954;21.730;2023-11-19T13:46:38;6.90;;;5.28;;
42282;SDS011;28237;47.954;21.730;2023-11-19T13:49:04;9.18;;;5.78;;
42282;SDS011;28237;47.954;21.730;2023-11-19T13:51:29;10.18;;;5.55;;
42282;SDS011;28237;47.954;21.730;2023-11-19T13:53:54;9.80;;;6.17;;
42282;SDS011;28237;47.954;21.730;2023-11-19T13:56:20;8.60;;;6.35;;
42282;SDS011;28237;47.954;21.730;2023-11-19T13:58:45;8.23;;;5.80;;
42282;SDS011;28237;47.954;21.730;2023-11-19T14:01:10;7.18;;;5.22;;
42282;SDS011;28237;47.954;21.730;2023-11-19T14:03:37;8.25;;;5.32;;
42282;SDS011;28237;47.954;21.730;2023-11-19T14:06:03;8.30;;;5.45;;
42282;SDS011;28237;47.954;21.730;2023-11-19T14:08:28;8.88;;;4.32;;
42282;SDS011;28237;47.954;21.730;2023-11-19T14:10:53;9.47;;;6.37;;
42282;SDS011;28237;47.954;21.730;2023-11-19T14:13:21;9.30;;;5.45;;
42282;SDS011;28237;47.954;21.730;2023-11-19T14:15:46;10.00;;;6.13;;
42282;SDS011;28237;47.954;21.730;2023-11-19T14:18:11;9.10;;;6.00;;
42282;SDS011;28237;47.954;21.730;2023-11-19T14:20:37;9.57;;;5.10;;
42282;SDS011;28237;47.954;21.730;2023-11-19T14:23:04;8.05;;;5.80;;
42282;SDS011;28237;47.954;21.730;2023-11-19T14:25:29;9.30;;;5.38;;
42282;SDS011;28237;47.954;21.730;2023-11-19T14:27:54;6.32;;;4.32;;
42282;SDS011;28237;47.954;21.730;2023-11-19T14:30:20;11.48;;;6.55;;
42282;SDS011;28237;47.954;21.730;2023-11-19T14:32:45;8.18;;;4.88;;
42282;SDS011;28237;47.954;21.730;2023-11-19T14:35:11;13.38;;;5.35;;
42282;SDS011;28237;47.954;21.730;2023-11-19T14:37:37;8.27;;;5.40;;
42282;SDS011;28237;47.954;21.730;2023-11-19T14:40:02;9.45;;;5.78;;
42282;SDS011;28237;47.954;21.730;2023-11-19T14:42:32;8.55;;;5.95;;
42282;SDS011;28237;47.954;21.730;2023-11-19T14:44:57;11.73;;;6.18;;
42282;SDS011;28237;47.954;21.730;2023-11-19T14:47:22;9.05;;;6.00;;